createdAt,value
2023-04-22T00:09:52.657Z,8.3
2023-04-22T00:22:31.379Z,6.9
2023-04-22T00:34:52.671Z,5.5
2023-04-22T00:40:57.255Z,6.7
2023-04-22T00:47:06.029Z,7.3
2023-04-22T00:59:52.968Z,6.6
2023-04-22T01:12:20.588Z,7.7
2023-04-22T01:24:55.612Z,5.7
2023-04-22T01:30:58.861Z,6
2023-04-22T01:37:03.097Z,6.5
2023-04-22T01:43:24.275Z,6.1
2023-04-22T01:49:15.586Z,7.3
2023-04-22T01:55:10.412Z,7.1
2023-04-22T02:01:04.173Z,7.4
2023-04-22T02:07:07.731Z,5.1
2023-04-22T02:13:08.817Z,5
2023-04-22T02:19:10.226Z,8
2023-04-22T02:25:03.350Z,6.4
2023-04-22T02:31:03.600Z,6.5
2023-04-22T02:36:57.650Z,7
2023-04-22T02:42:50.485Z,6
2023-04-22T02:48:43.412Z,5.8
2023-04-22T02:54:39.664Z,7
2023-04-22T03:00:36.315Z,6.5
2023-04-22T03:06:33.930Z,8.1
2023-04-22T03:12:37.811Z,8.3
2023-04-22T03:18:37.414Z,9
2023-04-22T03:24:35.317Z,11.5
2023-04-22T03:30:39.728Z,6.9
2023-04-22T03:36:37.718Z,6.3
2023-04-22T03:42:34.356Z,7.1
2023-04-22T03:54:49.284Z,6.7
2023-04-22T04:00:53.299Z,8
2023-04-22T04:06:46.673Z,7.1
2023-04-22T04:12:39.814Z,7.7
2023-04-22T04:18:30.809Z,5.9
2023-04-22T04:24:22.764Z,5.8
2023-04-22T04:30:16.824Z,6.1
2023-04-22T04:36:13.788Z,6.7
2023-04-22T04:42:26.428Z,7.4
2023-04-22T04:48:16.033Z,5.6
2023-04-22T04:54:07.365Z,6.7
2023-04-22T05:00:01.150Z,7.5
2023-04-22T05:05:54.760Z,6.7
2023-04-22T05:11:51.610Z,6.8
2023-04-22T05:17:43.651Z,6.4
2023-04-22T05:23:34.267Z,6.3
2023-04-22T05:29:25.244Z,6.1
2023-04-22T05:35:16.532Z,6.5
2023-04-22T05:41:09.033Z,6.4
2023-04-22T05:47:04.751Z,6.9
2023-04-22T05:52:56.439Z,6.3
2023-04-22T05:58:47.949Z,5
2023-04-22T06:04:48.946Z,5.9
2023-04-22T06:10:43.445Z,6.6
2023-04-22T06:17:11.714Z,5.6
2023-04-22T06:35:56.677Z,6
2023-04-22T06:42:25.601Z,6.5
2023-04-22T06:48:33.078Z,9.4
2023-04-22T06:54:39.241Z,5.7
2023-04-22T07:01:16.952Z,4.4
2023-04-22T07:07:21.268Z,6.2
2023-04-22T07:13:48.042Z,4.7
2023-04-22T07:19:50.922Z,6.2
2023-04-22T07:26:06.047Z,6.7
2023-04-22T07:32:10.590Z,5.5
2023-04-22T07:38:20.396Z,6.9
2023-04-22T07:44:39.576Z,5.7
2023-04-22T07:50:57.011Z,6
2023-04-22T07:57:06.049Z,6.5
2023-04-22T08:03:23.582Z,4.8
2023-04-22T08:09:56.465Z,4.4
2023-04-22T08:15:58.874Z,4.6
2023-04-22T08:21:55.951Z,7.6
2023-04-22T08:27:48.486Z,5
2023-04-22T08:33:43.002Z,5.6
2023-04-22T08:39:40.659Z,5
2023-04-22T08:45:41.043Z,4.6
2023-04-22T08:51:53.345Z,4.9
2023-04-22T08:57:48.398Z,4.1
2023-04-22T09:03:45.033Z,4.8
2023-04-22T09:09:37.545Z,6.1
2023-04-22T09:15:36.745Z,4.2
2023-04-22T09:21:26.115Z,4.5
2023-04-22T09:27:18.527Z,5.1
2023-04-22T09:33:10.521Z,3.8
2023-04-22T09:39:02.523Z,4.8
2023-04-22T09:44:54.928Z,4.7
2023-04-22T09:50:47.605Z,4.3
2023-04-22T09:56:39.685Z,4.6
2023-04-22T10:02:32.450Z,3.2
2023-04-22T10:08:25.500Z,3.6
2023-04-22T10:14:18.528Z,4.7
2023-04-22T10:20:10.689Z,4.7
2023-04-22T10:26:02.583Z,4.5
2023-04-22T10:31:55.385Z,4.4
2023-04-22T10:37:48.373Z,3.8
2023-04-22T10:43:40.143Z,5.3
2023-04-22T10:49:32.555Z,4.6
2023-04-22T10:55:24.349Z,3.8
2023-04-22T11:01:16.382Z,5
2023-04-22T11:07:08.316Z,4.3
2023-04-22T11:13:00.005Z,4.8
2023-04-22T11:18:52.246Z,5.1
2023-04-22T11:24:44.060Z,4.8
2023-04-22T11:30:35.900Z,5
2023-04-22T11:36:27.867Z,6
2023-04-22T11:42:20.102Z,5.5
2023-04-22T11:48:12.181Z,5.4
2023-04-22T11:54:05.193Z,5.5
2023-04-22T11:59:57.700Z,4.7
2023-04-22T12:05:49.609Z,7
2023-04-22T12:11:41.487Z,5
2023-04-22T12:17:33.367Z,5.3
2023-04-22T12:23:25.207Z,6.5
2023-04-22T12:29:17.131Z,4.6
2023-04-22T12:35:10.920Z,6.6
2023-04-22T12:41:01.889Z,5.1
2023-04-22T12:46:54.751Z,5.8
2023-04-22T12:52:46.240Z,4.3
2023-04-22T12:58:38.355Z,4.3
2023-04-22T13:04:30.476Z,5.4
2023-04-22T13:10:23.181Z,4.3
2023-04-22T13:16:14.974Z,3.5
2023-04-22T13:22:09.269Z,3.8
2023-04-22T13:28:02.355Z,5.3
2023-04-22T13:33:54.687Z,3.2
2023-04-22T13:39:47.184Z,5.3
2023-04-22T13:45:39.517Z,3.8
2023-04-22T13:51:31.357Z,2.9
2023-04-22T13:57:23.463Z,5.3
2023-04-22T14:03:16.081Z,4.2
2023-04-22T14:09:08.485Z,3.7
2023-04-22T14:15:00.706Z,4.6
2023-04-22T14:20:52.441Z,4.3
2023-04-22T14:26:44.637Z,5.5
2023-04-22T14:32:37.116Z,6.8
2023-04-22T14:38:29.675Z,3.5
2023-04-22T14:44:21.603Z,2.8
2023-04-22T14:50:13.728Z,6.6
2023-04-22T14:56:04.950Z,5.1
2023-04-22T15:01:58.005Z,4.5
2023-04-22T15:07:50.077Z,3.2
2023-04-22T15:13:42.608Z,4.2
2023-04-22T15:19:43.794Z,3.8
2023-04-22T15:25:48.419Z,3.8
2023-04-22T15:31:42.963Z,3.4
2023-04-22T15:37:35.170Z,3
2023-04-22T15:43:28.025Z,2.5
2023-04-22T15:49:23.021Z,3.5
2023-04-22T15:55:17.203Z,3.9
2023-04-22T16:01:25.185Z,3
2023-04-22T16:07:17.545Z,2.6
2023-04-22T16:13:10.215Z,8
2023-04-22T16:19:05.882Z,3.4
2023-04-22T16:25:00.747Z,4.3
2023-04-22T16:30:56.373Z,5.7
2023-04-22T16:36:50.126Z,4.5
2023-04-22T16:42:52.409Z,8.1
2023-04-22T16:48:44.699Z,4.1
2023-04-22T16:54:36.824Z,6
2023-04-22T17:00:30.362Z,6.2
2023-04-22T17:06:22.814Z,6
2023-04-22T17:12:19.299Z,7.5
2023-04-22T17:18:28.164Z,3.5
2023-04-22T17:24:25.289Z,2.6
2023-04-22T17:30:31.633Z,3.4
2023-04-22T17:36:44.822Z,1.7
2023-04-22T17:43:00.517Z,3.1
2023-04-22T17:48:58.177Z,3.6
2023-04-22T17:55:08.017Z,2.6
2023-04-22T18:01:44.159Z,3.7
2023-04-22T18:07:35.567Z,2.4
2023-04-22T18:13:30.680Z,2.2
2023-04-22T18:19:31.636Z,3.7
2023-04-22T18:25:26.784Z,3.5
2023-04-22T18:31:18.931Z,2.3
2023-04-22T18:37:41.863Z,2.4
2023-04-22T18:43:53.782Z,2.6
2023-04-22T18:50:11.933Z,2.2
2023-04-22T18:56:10.100Z,2.3
2023-04-22T19:02:07.743Z,6.1
2023-04-22T19:08:02.432Z,3.1
2023-04-22T19:14:09.643Z,4.1
2023-04-22T19:20:13.146Z,3.8
2023-04-22T19:32:32.862Z,4
2023-04-22T19:44:57.167Z,5
2023-04-22T19:57:39.223Z,4.6
2023-04-22T20:04:55.619Z,4.4
2023-04-22T20:16:58.275Z,5.7
2023-04-22T20:23:06.722Z,5.4
2023-04-22T20:29:00.209Z,6.4
2023-04-22T20:35:00.908Z,4.7
2023-04-22T20:41:08.694Z,4.6
2023-04-22T20:53:22.514Z,6.1
2023-04-22T21:05:39.641Z,11.2
2023-04-22T21:18:09.702Z,5
2023-04-22T21:24:27.604Z,5
2023-04-22T21:30:46.263Z,6.4
2023-04-22T21:36:39.877Z,6.8
2023-04-22T21:42:48.896Z,5.5
2023-04-22T21:48:43.693Z,7.6
2023-04-22T21:54:38.923Z,8.4
2023-04-22T22:00:32.853Z,8.1
2023-04-22T22:06:32.161Z,7.9
2023-04-22T22:12:33.511Z,9.5
2023-04-22T22:18:29.448Z,8.8
2023-04-22T22:24:27.403Z,8.5
2023-04-22T22:30:21.524Z,8.5
2023-04-22T22:36:18.108Z,9.1
2023-04-22T22:42:31.583Z,9.9
2023-04-22T22:48:32.320Z,10.5
2023-04-22T22:54:26.538Z,15.6
2023-04-22T23:00:21.289Z,24.3
2023-04-22T23:06:18.374Z,25.3
2023-04-22T23:18:28.316Z,34
2023-04-22T23:24:22.735Z,35.3
2023-04-22T23:30:34.181Z,39.8
2023-04-22T23:36:31.107Z,37
2023-04-22T23:42:25.746Z,41.7
2023-04-22T23:48:32.276Z,38.7
2023-04-22T23:55:02.322Z,38.6
